createdAt,value
2022-12-08T00:01:10.692Z,79.76
2022-12-08T00:06:47.310Z,79.82
2022-12-08T00:12:05.416Z,79.66
2022-12-08T00:17:17.427Z,79.71
2022-12-08T00:22:26.890Z,79.79
2022-12-08T00:27:36.427Z,80.00
2022-12-08T00:32:45.865Z,79.96
2022-12-08T00:38:00.582Z,79.72
2022-12-08T00:43:10.917Z,79.68
2022-12-08T00:48:20.538Z,79.74
2022-12-08T00:53:30.123Z,79.67
2022-12-08T00:58:39.963Z,79.71
2022-12-08T01:03:49.658Z,79.68
2022-12-08T01:08:59.109Z,79.33
2022-12-08T01:14:09.213Z,79.04
2022-12-08T01:19:20.742Z,78.95
2022-12-08T01:24:30.142Z,78.67
2022-12-08T01:29:39.897Z,78.95
2022-12-08T01:34:49.294Z,78.71
2022-12-08T01:39:58.657Z,78.63
2022-12-08T01:45:15.738Z,78.79
2022-12-08T01:50:26.530Z,78.71
2022-12-08T01:55:42.719Z,79.04
2022-12-08T02:00:53.546Z,79.18
2022-12-08T02:06:04.190Z,79.04
2022-12-08T02:11:15.919Z,79.06
2022-12-08T02:16:42.383Z,79.08
2022-12-08T02:22:01.349Z,79.14
2022-12-08T02:27:42.345Z,79.15
2022-12-08T02:33:39.027Z,79.36
2022-12-08T02:39:02.593Z,79.63
2022-12-08T02:44:21.778Z,79.75
2022-12-08T02:49:36.850Z,79.99
2022-12-08T02:54:51.492Z,80.06
2022-12-08T03:00:14.398Z,80.25
2022-12-08T03:05:45.599Z,80.25
2022-12-08T03:11:03.130Z,80.50
2022-12-08T03:16:20.107Z,80.54
2022-12-08T03:21:31.116Z,80.59
2022-12-08T03:26:48.180Z,80.73
2022-12-08T03:32:02.783Z,80.75
2022-12-08T03:37:12.133Z,80.88
2022-12-08T03:42:21.624Z,81.39
2022-12-08T03:47:31.049Z,81.56
2022-12-08T03:52:41.189Z,81.61
2022-12-08T03:57:50.960Z,81.80
2022-12-08T04:03:00.827Z,81.86
2022-12-08T04:08:10.700Z,81.89
2022-12-08T04:13:20.464Z,82.17
2022-12-08T04:18:30.042Z,82.05
2022-12-08T04:23:39.679Z,81.94
2022-12-08T04:28:49.439Z,81.89
2022-12-08T04:33:59.156Z,81.81
2022-12-08T04:39:08.747Z,81.72
2022-12-08T04:44:18.522Z,81.54
2022-12-08T04:49:28.308Z,81.47
2022-12-08T04:54:38.133Z,81.41
2022-12-08T04:59:47.832Z,81.42
2022-12-08T05:04:57.321Z,81.38
2022-12-08T05:10:07.999Z,81.22
2022-12-08T05:15:18.220Z,81.38
2022-12-08T05:20:27.945Z,81.36
2022-12-08T05:25:37.316Z,81.46
2022-12-08T05:30:46.963Z,81.29
2022-12-08T05:35:56.306Z,81.28
2022-12-08T05:41:07.087Z,81.37
2022-12-08T05:46:17.671Z,81.29
2022-12-08T05:51:28.227Z,81.11
2022-12-08T05:56:38.050Z,80.91
2022-12-08T06:01:47.852Z,80.73
2022-12-08T06:06:57.283Z,80.64
2022-12-08T06:12:07.822Z,80.39
2022-12-08T06:17:17.349Z,80.40
2022-12-08T06:22:26.927Z,80.10
2022-12-08T06:27:36.456Z,79.79
2022-12-08T06:32:46.195Z,79.08
2022-12-08T06:37:55.632Z,78.96
2022-12-08T06:43:05.378Z,78.81
2022-12-08T06:48:14.768Z,78.49
2022-12-08T06:53:24.290Z,78.58
2022-12-08T06:58:33.926Z,78.02
2022-12-08T07:03:44.967Z,78.14
2022-12-08T07:08:54.843Z,77.86
2022-12-08T07:14:04.582Z,77.34
2022-12-08T07:19:13.988Z,76.97
2022-12-08T07:24:23.675Z,77.25
2022-12-08T07:29:33.086Z,76.31
2022-12-08T07:34:42.457Z,76.06
2022-12-08T07:39:51.897Z,75.90
2022-12-08T07:45:01.699Z,75.25
2022-12-08T07:50:13.175Z,75.71
2022-12-08T07:55:22.726Z,76.06
2022-12-08T08:00:32.675Z,76.17
2022-12-08T08:05:43.827Z,76.32
2022-12-08T08:10:53.395Z,76.06
2022-12-08T08:16:11.374Z,75.76
2022-12-08T08:21:44.994Z,75.04
2022-12-08T08:26:53.851Z,75.21
2022-12-08T08:32:03.400Z,74.42
2022-12-08T08:37:12.954Z,75.03
2022-12-08T08:42:22.799Z,75.04
2022-12-08T08:47:32.415Z,74.32
2022-12-08T08:52:42.070Z,74.25
2022-12-08T08:57:51.655Z,73.53
2022-12-08T09:03:01.488Z,73.62
2022-12-08T09:08:11.176Z,73.69
2022-12-08T09:13:20.729Z,73.71
2022-12-08T09:18:30.469Z,73.99
2022-12-08T09:23:40.297Z,73.72
2022-12-08T09:28:50.359Z,73.99
2022-12-08T09:34:00.631Z,72.75
2022-12-08T09:39:10.622Z,73.14
2022-12-08T09:44:47.548Z,73.14
2022-12-08T09:50:08.167Z,73.56
2022-12-08T09:55:26.140Z,73.90
2022-12-08T10:00:38.909Z,73.93
2022-12-08T10:05:57.843Z,74.25
2022-12-08T10:11:21.386Z,74.27
2022-12-08T10:16:40.687Z,74.31
2022-12-08T10:21:50.603Z,74.31
2022-12-08T10:27:02.047Z,74.52
2022-12-08T10:32:22.472Z,74.36
2022-12-08T10:37:32.217Z,74.22
2022-12-08T10:42:44.985Z,74.10
2022-12-08T10:48:04.606Z,73.88
2022-12-08T10:53:25.250Z,74.01
2022-12-08T10:58:40.928Z,74.22
2022-12-08T11:03:55.663Z,74.15
2022-12-08T11:09:23.651Z,74.14
2022-12-08T11:14:39.669Z,73.95
2022-12-08T11:20:00.408Z,74.14
2022-12-08T11:25:20.306Z,74.08
2022-12-08T11:30:34.124Z,74.02
2022-12-08T11:35:47.197Z,73.92
2022-12-08T11:41:01.899Z,74.10
2022-12-08T11:46:21.613Z,74.06
2022-12-08T11:51:38.902Z,73.72
2022-12-08T11:56:54.274Z,73.67
2022-12-08T12:02:06.773Z,73.29
2022-12-08T12:07:58.226Z,73.04
2022-12-08T12:13:42.204Z,72.99
2022-12-08T12:18:56.739Z,73.14
2022-12-08T12:24:12.587Z,72.97
2022-12-08T12:29:25.685Z,72.90
2022-12-08T12:34:40.522Z,72.73
2022-12-08T12:39:59.837Z,73.14
2022-12-08T12:45:32.015Z,73.48
2022-12-08T12:50:48.877Z,77.21
2022-12-08T12:56:01.260Z,75.24
2022-12-08T13:01:52.805Z,76.58
2022-12-08T13:07:05.201Z,78.05
2022-12-08T13:12:25.116Z,78.79
2022-12-08T13:17:38.827Z,80.06
2022-12-08T13:23:43.918Z,80.31
2022-12-08T13:29:27.321Z,80.72
2022-12-08T13:34:43.648Z,81.68
2022-12-08T13:40:00.542Z,81.44
2022-12-08T13:57:02.772Z,81.82
2022-12-08T14:02:05.485Z,81.58
2022-12-08T14:07:16.974Z,81.04
2022-12-08T14:12:29.618Z,81.92
2022-12-08T14:17:40.655Z,82.14
2022-12-08T14:22:53.221Z,81.66
2022-12-08T14:28:06.764Z,81.76
2022-12-08T14:33:19.553Z,81.61
2022-12-08T14:38:30.060Z,81.61
2022-12-08T14:43:41.379Z,81.79
2022-12-08T14:48:53.934Z,81.77
2022-12-08T14:54:09.976Z,81.88
2022-12-08T14:59:26.639Z,82.06
2022-12-08T15:04:38.777Z,82.00
2022-12-08T15:09:51.438Z,82.14
2022-12-08T15:15:16.139Z,82.06
2022-12-08T15:20:41.873Z,82.21
2022-12-08T15:25:51.719Z,82.43
2022-12-08T15:31:02.008Z,82.49
2022-12-08T15:36:13.526Z,82.59
2022-12-08T15:41:22.885Z,82.56
2022-12-08T15:46:32.494Z,82.51
2022-12-08T15:51:42.060Z,82.70
2022-12-08T15:57:18.435Z,82.78
2022-12-08T16:02:34.334Z,82.64
2022-12-08T16:07:57.826Z,82.68
2022-12-08T16:13:56.168Z,82.79
2022-12-08T16:18:56.975Z,82.94
2022-12-08T16:24:09.442Z,82.85
2022-12-08T16:29:24.447Z,82.86
2022-12-08T16:34:33.907Z,82.81
2022-12-08T16:39:45.878Z,82.79
2022-12-08T16:44:55.779Z,82.81
2022-12-08T16:50:09.521Z,82.82
2022-12-08T16:55:21.369Z,82.95
2022-12-08T17:00:37.182Z,82.97
2022-12-08T17:05:47.959Z,82.93
2022-12-08T17:11:09.150Z,82.92
2022-12-08T17:16:21.948Z,83.08
2022-12-08T17:21:31.743Z,83.09
2022-12-08T17:26:41.324Z,83.11
2022-12-08T17:31:51.491Z,83.07
2022-12-08T17:37:01.157Z,83.18
2022-12-08T17:42:11.605Z,83.21
2022-12-08T17:47:21.051Z,83.07
2022-12-08T17:52:30.616Z,83.05
2022-12-08T17:57:40.197Z,83.03
2022-12-08T18:02:49.995Z,83.01
2022-12-08T18:08:01.089Z,83.01
2022-12-08T18:13:10.884Z,83.01
2022-12-08T18:18:22.926Z,82.90
2022-12-08T18:23:32.816Z,82.79
2022-12-08T18:28:42.998Z,82.75
2022-12-08T18:33:53.805Z,82.72
2022-12-08T18:39:10.183Z,82.71
2022-12-08T18:44:20.884Z,82.57
2022-12-08T18:49:30.715Z,82.60
2022-12-08T18:55:05.229Z,82.60
2022-12-08T19:00:15.894Z,82.58
2022-12-08T19:05:25.692Z,82.50
2022-12-08T19:10:38.754Z,82.57
2022-12-08T19:15:48.493Z,82.61
2022-12-08T19:20:59.908Z,82.62
2022-12-08T19:26:12.150Z,82.59
2022-12-08T19:31:21.902Z,82.61
2022-12-08T19:36:35.664Z,82.69
2022-12-08T19:42:03.023Z,82.82
2022-12-08T19:47:12.805Z,82.75
2022-12-08T19:52:22.852Z,82.74
2022-12-08T19:57:32.977Z,82.72
2022-12-08T20:02:42.573Z,82.82
2022-12-08T20:07:55.835Z,82.75
2022-12-08T20:13:35.539Z,82.67
2022-12-08T20:18:48.037Z,82.68
2022-12-08T20:23:57.821Z,82.79
2022-12-08T20:29:07.319Z,82.72
2022-12-08T20:34:20.692Z,82.68
2022-12-08T20:39:30.270Z,82.68
2022-12-08T20:44:43.651Z,82.86
2022-12-08T20:49:53.419Z,83.11
2022-12-08T20:55:03.034Z,83.24
2022-12-08T21:00:15.591Z,83.42
2022-12-08T21:05:25.575Z,83.46
2022-12-08T21:10:42.179Z,83.45
2022-12-08T21:15:53.818Z,83.52
2022-12-08T21:21:10.623Z,83.67
2022-12-08T21:26:23.633Z,83.77
2022-12-08T21:31:33.717Z,83.93
2022-12-08T21:36:43.419Z,84.14
2022-12-08T21:42:10.801Z,84.19
2022-12-08T21:47:20.640Z,84.43
2022-12-08T21:52:30.660Z,84.67
2022-12-08T21:57:40.708Z,84.56
2022-12-08T22:02:50.266Z,84.57
2022-12-08T22:08:00.117Z,84.71
2022-12-08T22:13:09.632Z,84.89
2022-12-08T22:18:19.474Z,85.01
2022-12-08T22:23:29.662Z,84.96
2022-12-08T22:28:42.883Z,84.91
2022-12-08T22:33:53.895Z,84.86
2022-12-08T22:39:05.296Z,84.91
2022-12-08T22:44:17.577Z,84.93
2022-12-08T22:49:28.720Z,85.07
2022-12-08T22:54:38.711Z,85.20
2022-12-08T22:59:48.313Z,85.08
2022-12-08T23:05:00.004Z,85.09
2022-12-08T23:10:12.408Z,85.00
2022-12-08T23:15:22.560Z,85.01
2022-12-08T23:20:32.139Z,85.14
2022-12-08T23:25:45.221Z,85.22
2022-12-08T23:30:55.295Z,85.14
2022-12-08T23:36:05.133Z,85.09
2022-12-08T23:41:17.340Z,85.04
2022-12-08T23:46:27.776Z,85.18
2022-12-08T23:51:38.172Z,85.30
2022-12-08T23:56:48.367Z,85.41
